Map

Track Data

SID SEASON NUMBER BASIN SUBBASIN NAME ISO_TIME NATURE LAT LON WMO_WIND WMO_PRES WMO_AGENCY TRACK_TYPE DIST2LAND LANDFALL IFLAG USA_AGENCY USA_ATCF_ID USA_LAT USA_LON USA_RECORD USA_STATUS USA_WIND USA_PRES USA_SSHS USA_R34_NE USA_R34_SE USA_R34_SW USA_R34_NW USA_R50_NE USA_R50_SE USA_R50_SW USA_R50_NW USA_R64_NE USA_R64_SE USA_R64_SW USA_R64_NW USA_POCI USA_ROCI USA_RMW USA_EYE TOKYO_LAT TOKYO_LON TOKYO_GRADE TOKYO_WIND TOKYO_PRES TOKYO_R50_DIR TOKYO_R50_LONG TOKYO_R50_SHORT TOKYO_R30_DIR TOKYO_R30_LONG TOKYO_R30_SHORT TOKYO_LAND CMA_LAT CMA_LON CMA_CAT CMA_WIND CMA_PRES HKO_LAT HKO_LON HKO_CAT HKO_WIND HKO_PRES NEWDELHI_LAT NEWDELHI_LON NEWDELHI_GRADE NEWDELHI_WIND NEWDELHI_PRES NEWDELHI_CI NEWDELHI_DP NEWDELHI_POCI REUNION_LAT REUNION_LON REUNION_TYPE REUNION_WIND REUNION_PRES REUNION_TNUM REUNION_CI REUNION_RMW REUNION_R34_NE REUNION_R34_SE REUNION_R34_SW REUNION_R34_NW REUNION_R50_NE REUNION_R50_SE REUNION_R50_SW REUNION_R50_NW REUNION_R64_NE REUNION_R64_SE REUNION_R64_SW REUNION_R64_NW BOM_LAT BOM_LON BOM_TYPE BOM_WIND BOM_PRES BOM_TNUM BOM_CI BOM_RMW BOM_R34_NE BOM_R34_SE BOM_R34_SW BOM_R34_NW BOM_R50_NE BOM_R50_SE BOM_R50_SW BOM_R50_NW BOM_R64_NE BOM_R64_SE BOM_R64_SW BOM_R64_NW BOM_ROCI BOM_POCI BOM_EYE BOM_POS_METHOD BOM_PRES_METHOD NADI_LAT NADI_LON NADI_CAT NADI_WIND NADI_PRES WELLINGTON_LAT WELLINGTON_LON WELLINGTON_WIND WELLINGTON_PRES DS824_LAT DS824_LON DS824_STAGE DS824_WIND DS824_PRES TD9636_LAT TD9636_LON TD9636_STAGE TD9636_WIND TD9636_PRES TD9635_LAT TD9635_LON TD9635_WIND TD9635_PRES TD9635_ROCI NEUMANN_LAT NEUMANN_LON NEUMANN_CLASS NEUMANN_WIND NEUMANN_PRES MLC_LAT MLC_LON MLC_CLASS MLC_WIND MLC_PRES USA_GUST BOM_GUST BOM_GUST_PER REUNION_GUST REUNION_GUST_PER USA_SEAHGT USA_SEARAD_NE USA_SEARAD_SE USA_SEARAD_SW USA_SEARAD_NW STORM_SPEED STORM_DIR
1967293N09090 1967 126 NI BB NOT_NAMED 1967-10-19 18:00:00 TS 8.60000 90.2000 main 646 646 O________O____ jtwc_io IO121967 8.60000 90.2000 -1 8.60000 90.2000 TC 1 302
1967293N09090 1967 126 NI BB NOT_NAMED 1967-10-19 21:00:00 TS 8.63000 90.1575 main 646 646 P________P____ IO121967 8.63000 90.1575 -1 8.63000 90.1575 TC 1 317
1967293N09090 1967 126 NI BB NOT_NAMED 1967-10-20 00:00:00 TS 8.70000 90.1000 main 661 661 O________O____ jtwc_io IO121967 8.70000 90.1000 -1 8.70000 90.1000 TC 25 2 324
1967293N09090 1967 126 NI BB NOT_NAMED 1967-10-20 03:00:00 TS 8.83111 90.0133 main 676 676 P________PO___ IO121967 8.83500 90.0150 -1 8.83500 90.0150 TC 25 8.80000 90.0000 1 4 326
1967293N09090 1967 126 NI BB NOT_NAMED 1967-10-20 06:00:00 TS 9.00095 89.8904 main 698 698 O________OP___ jtwc_io IO121967 9.00000 89.9000 -1 9.00000 89.9000 TC 25 9.00474 89.8518 1 4 321
1967293N09090 1967 126 NI BB NOT_NAMED 1967-10-20 09:00:00 TS 9.16298 89.7399 main 728 728 P________PP___ IO121967 9.15001 89.7500 -1 9.15001 89.7500 TC 25 9.19756 89.7128 1 4 318
1967293N09090 1967 126 NI BB NOT_NAMED 1967-10-20 12:00:00 TS 9.32220 89.5975 main 744 744 O________OP___ jtwc_io IO121967 9.30000 89.6000 -1 9.30000 89.6000 TC 25 9.36660 89.5924 1 4 320
1967293N09090 1967 126 NI BB NOT_NAMED 1967-10-20 15:00:00 TS 9.46666 89.4850 main 765 765 P________PO___ IO121967 9.45000 89.4775 -1 9.45000 89.4775 TC 25 9.50000 89.5000 1 3 327
1967293N09090 1967 126 NI BB NOT_NAMED 1967-10-20 18:00:00 TS 9.59874 89.4135 main 781 781 O________OP___ jtwc_io IO121967 9.60000 89.4000 -1 9.60000 89.4000 TC 25 9.59623 89.4404 1 3 340
1967293N09090 1967 126 NI BB NOT_NAMED 1967-10-20 21:00:00 TS 9.71666 89.3998 main 787 787 P________PP___ IO121967 9.72749 89.3999 -1 9.72749 89.3999 TC 25 9.69499 89.3996 1 3 0
1967293N09090 1967 126 NI BB NOT_NAMED 1967-10-21 00:00:00 TS 9.88208 89.3864 main 800 800 O________OP___ jtwc_io IO121967 9.90000 89.4000 -1 9.90000 89.4000 TC 25 9.84624 89.3591 1 4 349
1967293N09090 1967 126 NI BB NOT_NAMED 1967-10-21 03:00:00 TS 10.1217 89.3150 main 822 818 P________PO___ IO121967 10.1325 89.3224 -1 10.1325 89.3224 TC 25 10.1000 89.3000 1 7 343
1967293N09090 1967 126 NI BB NOT_NAMED 1967-10-21 06:00:00 TS 10.5112 89.1909 main 818 785 O________OP___ jtwc_io IO121967 10.5000 89.2000 -1 10.5000 89.2000 TC 25 10.5335 89.1727 1 10 344
1967293N09090 1967 126 NI BB NOT_NAMED 1967-10-21 09:00:00 TS 11.0742 89.0378 main 785 755 P________PP___ IO121967 11.0775 89.0426 -1 11.0775 89.0426 TC 25 11.0677 89.0282 1 12 346
1967293N09090 1967 126 NI BB NOT_NAMED 1967-10-21 12:00:00 TS 11.6810 88.8982 main 747 721 O________OP___ jtwc_io IO121967 11.7000 88.9000 -1 11.7000 88.9000 TC 25 11.6429 88.8946 1 11 349
1967293N09090 1967 126 NI BB NOT_NAMED 1967-10-21 15:00:00 TS 12.1866 88.8183 main 721 695 P________PO___ IO121967 12.1800 88.8274 -1 12.1800 88.8274 TC 25 12.2000 88.8000 1 9 353
1967293N09090 1967 126 NI BB NOT_NAMED 1967-10-21 18:00:00 TS 12.6030 88.7859 main 695 671 O________OP___ jtwc_io IO121967 12.6000 88.8000 -1 12.6000 88.8000 TC 25 12.6090 88.7577 1 8 358
1967293N09090 1967 126 NI BB NOT_NAMED 1967-10-21 21:00:00 TS 12.9891 88.7719 main 671 649 P________PP___ IO121967 12.9850 88.7776 -1 12.9850 88.7776 TC 30 12.9975 88.7604 1 8 1
1967293N09090 1967 126 NI BB NOT_NAMED 1967-10-22 00:00:00 TS 13.4040 88.8027 main 649 616 O________OP___ jtwc_io IO121967 13.4000 88.8000 -1 13.4000 88.8000 TC 35 13.4121 88.8080 1 9 7
1967293N09090 1967 126 NI BB NOT_NAMED 1967-10-22 03:00:00 TS 13.8983 88.8850 main 616 582 P________PO___ IO121967 13.8975 88.8776 -1 13.8975 88.8776 TC 35 13.9000 88.9000 2 11 10
1967293N09090 1967 126 NI BB NOT_NAMED 1967-10-22 06:00:00 TS 14.5164 88.9998 main 582 553 O________OP___ jtwc_io IO121967 14.5000 89.0000 -1 14.5000 89.0000 TC 35 14.5492 88.9995 2 14 10
1967293N09090 1967 126 NI BB NOT_NAMED 1967-10-22 09:00:00 TS 15.2516 89.1286 main 551 523 P________PP___ IO121967 15.2424 89.1202 -1 15.2424 89.1202 TC 35 15.2698 89.1454 2 15 12
1967293N09090 1967 126 NI BB NOT_NAMED 1967-10-22 12:00:00 TS 16.0018 89.3145 main 523 495 O________OP___ jtwc_io IO121967 16.0000 89.3000 -1 16.0000 89.3000 TC 35 16.0054 89.3435 2 15 17
1967293N09090 1967 126 NI BB NOT_NAMED 1967-10-22 15:00:00 TS 16.6583 89.5751 main 497 449 P________PO___ IO121967 16.6374 89.5626 -1 16.6374 89.5626 TC 35 16.7000 89.6000 3 14 25
1967293N09090 1967 126 NI BB NOT_NAMED 1967-10-22 18:00:00 TS 17.2198 89.9112 main 449 383 O________OP___ jtwc_io IO121967 17.2000 89.9000 -1 17.2000 89.9000 TC 35 17.2594 89.9337 3 13 33
1967293N09090 1967 126 NI BB NOT_NAMED 1967-10-22 21:00:00 TS 17.7244 90.3018 main 383 313 P________PP___ IO121967 17.7000 90.2927 -1 17.7000 90.2927 TC 50 17.7730 90.3201 3 13 37
1967293N09090 1967 126 NI BB NOT_NAMED 1967-10-23 00:00:00 TS 18.2250 90.7071 main 313 237 O________OP___ jtwc_io IO121967 18.2000 90.7000 -1 18.2000 90.7000 TC 65 18.2751 90.7214 3 13 35
1967293N09090 1967 126 NI BB NOT_NAMED 1967-10-23 03:00:00 TS 18.7900 91.0768 main 237 169 P________PO___ IO121967 18.7849 91.0651 -1 18.7849 91.0651 TC 50 18.8000 91.1000 4 13 30
1967293N09090 1967 126 NI BB NOT_NAMED 1967-10-23 06:00:00 TS 19.3898 91.4108 main 169 107 O________OP___ jtwc_io IO121967 19.4000 91.4000 -1 19.4000 91.4000 TC 35 19.3744 91.4269 4 14 26
1967293N09090 1967 126 NI BB NOT_NAMED 1967-10-23 09:00:00 TS 19.9996 91.7078 main 107 43 P________PP___ IO121967 20.0051 91.7071 -1 20.0051 91.7071 TC 30 19.9923 91.7088 4 13 24
1967293N09090 1967 126 NI BB NOT_NAMED 1967-10-23 12:00:00 TS 20.6195 91.9806 main 43 0 O________OP___ jtwc_io IO121967 20.6000 92.0000 -1 20.6000 92.0000 TC 25 20.6390 91.9613 4 14 20
1967293N09090 1967 126 NI BB NOT_NAMED 1967-10-23 15:00:00 NR 21.3000 92.2000 main 0 __________O___ IO121967 -1 TC 21.3000 92.2000 1 14 17

About IBTrACS Database

This database is a web-friendly format of International Best Track Archive for Climate Stewardship (IBTrACS), a global best track data archive curated by NOAA dating back to 1842.

Updated: 2021-10-21